createdAt,value
2022-09-13T00:01:13.138Z,10.80
2022-09-13T00:03:41.706Z,10.90
2022-09-13T00:06:14.418Z,10.80
2022-09-13T00:08:43.425Z,10.80
2022-09-13T00:11:17.550Z,10.80
2022-09-13T00:13:46.116Z,10.80
2022-09-13T00:16:16.557Z,10.70
2022-09-13T00:18:45.793Z,10.70
2022-09-13T00:21:17.939Z,10.60
2022-09-13T00:23:48.084Z,10.60
2022-09-13T00:26:19.608Z,10.50
2022-09-13T00:28:51.528Z,10.50
2022-09-13T00:31:21.517Z,10.50
2022-09-13T00:33:50.276Z,10.50
2022-09-13T00:36:20.265Z,10.40
2022-09-13T00:38:49.030Z,10.50
2022-09-13T00:41:20.070Z,10.50
2022-09-13T00:43:51.449Z,10.60
2022-09-13T00:46:27.500Z,10.60
2022-09-13T00:49:01.817Z,10.70
2022-09-13T00:51:33.213Z,10.70
2022-09-13T00:54:04.829Z,10.70
2022-09-13T00:56:37.758Z,10.70
2022-09-13T00:59:12.885Z,10.70
2022-09-13T01:01:47.379Z,10.80
2022-09-13T01:04:16.901Z,10.90
2022-09-13T01:06:47.748Z,10.90
2022-09-13T01:09:16.485Z,10.90
2022-09-13T01:11:50.279Z,10.90
2022-09-13T01:14:21.037Z,10.90
2022-09-13T01:16:49.928Z,10.90
2022-09-13T01:19:18.823Z,10.90
2022-09-13T01:22:14.695Z,10.90
2022-09-13T01:24:58.155Z,10.80
2022-09-13T01:27:55.939Z,10.70
2022-09-13T01:30:29.821Z,10.60
2022-09-13T01:33:27.688Z,10.50
2022-09-13T01:36:17.723Z,10.50
2022-09-13T01:38:58.330Z,10.60
2022-09-13T01:41:49.137Z,10.50
2022-09-13T01:44:35.976Z,10.50
2022-09-13T01:47:15.922Z,10.50
2022-09-13T01:49:48.961Z,10.50
2022-09-13T01:52:26.678Z,10.50
2022-09-13T01:55:02.965Z,10.50
2022-09-13T01:57:37.160Z,10.40
2022-09-13T02:00:10.118Z,10.40
2022-09-13T02:02:49.100Z,10.40
2022-09-13T02:05:22.904Z,10.40
2022-09-13T02:07:58.288Z,10.40
2022-09-13T02:10:31.277Z,10.40
2022-09-13T02:13:07.041Z,10.30
2022-09-13T02:15:39.947Z,10.30
2022-09-13T02:18:14.363Z,10.50
2022-09-13T02:20:47.272Z,10.60
2022-09-13T02:23:19.098Z,10.70
2022-09-13T02:25:49.706Z,10.80
2022-09-13T02:28:27.751Z,10.80
2022-09-13T02:30:59.684Z,10.80
2022-09-13T02:33:34.354Z,10.90
2022-09-13T02:36:06.628Z,10.90
2022-09-13T02:38:44.718Z,10.80
2022-09-13T02:41:19.356Z,10.80
2022-09-13T02:43:52.221Z,10.80
2022-09-13T02:46:37.050Z,10.80
2022-09-13T02:49:14.477Z,10.80
2022-09-13T02:51:52.603Z,10.80
2022-09-13T02:54:31.814Z,10.80
2022-09-13T02:57:06.424Z,10.70
2022-09-13T02:59:35.260Z,10.70
2022-09-13T03:02:08.123Z,10.70
2022-09-13T03:04:38.406Z,10.70
2022-09-13T03:07:11.302Z,10.70
2022-09-13T03:09:45.430Z,10.80
2022-09-13T03:12:34.416Z,10.80
2022-09-13T03:15:12.723Z,10.80
2022-09-13T03:17:52.662Z,10.70
2022-09-13T03:20:29.121Z,10.70
2022-09-13T03:23:31.478Z,10.70
2022-09-13T03:26:22.006Z,10.70
2022-09-13T03:28:57.089Z,10.80
2022-09-13T03:31:32.750Z,10.80
2022-09-13T03:34:08.913Z,10.70
2022-09-13T03:36:44.969Z,10.70
2022-09-13T03:39:21.962Z,10.70
2022-09-13T03:41:55.606Z,10.70
2022-09-13T03:44:26.526Z,10.70
2022-09-13T03:46:59.047Z,10.60
2022-09-13T03:49:28.975Z,10.60
2022-09-13T03:52:00.550Z,10.60
2022-09-13T03:54:32.639Z,10.60
2022-09-13T03:57:09.918Z,10.60
2022-09-13T03:59:40.305Z,10.60
2022-09-13T04:02:12.073Z,10.60
2022-09-13T04:04:41.418Z,10.70
2022-09-13T04:07:13.108Z,10.60
2022-09-13T04:09:41.876Z,10.60
2022-09-13T04:12:11.341Z,10.70
2022-09-13T04:14:39.972Z,10.70
2022-09-13T04:17:09.085Z,10.60
2022-09-13T04:19:38.223Z,10.70
2022-09-13T04:22:06.915Z,10.70
2022-09-13T04:24:38.833Z,10.80
2022-09-13T04:27:08.097Z,10.80
2022-09-13T04:29:36.813Z,10.80
2022-09-13T04:32:05.492Z,10.80
2022-09-13T04:34:34.439Z,10.70
2022-09-13T04:37:03.101Z,10.80
2022-09-13T04:39:31.672Z,11.00
2022-09-13T04:42:02.389Z,11.30
2022-09-13T04:44:31.681Z,11.20
2022-09-13T04:47:00.190Z,11.30
2022-09-13T04:49:28.673Z,11.50
2022-09-13T04:51:57.524Z,11.80
2022-09-13T04:54:26.418Z,12.20
2022-09-13T04:56:55.157Z,12.70
2022-09-13T04:59:25.324Z,12.80
2022-09-13T05:01:53.818Z,13.10
2022-09-13T05:04:22.281Z,12.90
2022-09-13T05:06:50.969Z,12.90
2022-09-13T05:09:19.777Z,12.90
2022-09-13T05:11:48.523Z,12.70
2022-09-13T05:14:17.320Z,12.40
2022-09-13T05:16:47.389Z,12.40
2022-09-13T05:19:16.388Z,12.20
2022-09-13T05:25:58.543Z,12.50
2022-09-13T05:28:29.925Z,12.20
2022-09-13T05:31:00.092Z,12.20
2022-09-13T05:33:33.779Z,12.10
2022-09-13T05:36:03.250Z,12.20
2022-09-13T05:38:31.922Z,12.30
2022-09-13T05:41:01.884Z,12.60
2022-09-13T05:43:31.974Z,12.70
2022-09-13T05:46:05.549Z,12.70
2022-09-13T05:48:37.352Z,12.70
2022-09-13T05:51:07.987Z,12.70
2022-09-13T05:53:38.140Z,12.80
2022-09-13T05:56:07.579Z,12.80
2022-09-13T05:58:39.419Z,12.80
2022-09-13T06:01:08.355Z,12.90
2022-09-13T06:03:38.173Z,13.00
2022-09-13T06:06:07.542Z,13.20
2022-09-13T06:08:36.769Z,13.40
2022-09-13T06:11:07.083Z,13.60
2022-09-13T06:13:35.970Z,13.70
2022-09-13T06:16:07.274Z,13.90
2022-09-13T06:18:35.982Z,14.00
2022-09-13T06:21:07.614Z,14.20
2022-09-13T06:23:36.498Z,14.20
2022-09-13T06:26:06.580Z,14.30
2022-09-13T06:28:37.534Z,14.50
2022-09-13T06:31:07.926Z,14.70
2022-09-13T06:33:37.844Z,14.80
2022-09-13T06:36:10.650Z,14.70
2022-09-13T06:38:40.782Z,15.10
2022-09-13T06:41:10.941Z,15.20
2022-09-13T06:43:39.814Z,15.00
2022-09-13T06:46:10.424Z,15.20
2022-09-13T06:48:40.470Z,15.40
2022-09-13T06:51:12.181Z,15.60
2022-09-13T06:53:41.831Z,15.90
2022-09-13T06:56:13.171Z,16.00
2022-09-13T06:58:42.963Z,16.10
2022-09-13T07:01:14.134Z,16.30
2022-09-13T07:03:44.407Z,16.10
2022-09-13T07:06:20.286Z,16.20
2022-09-13T07:08:52.249Z,16.20
2022-09-13T07:11:26.316Z,16.30
2022-09-13T07:13:56.635Z,16.40
2022-09-13T07:16:27.261Z,16.40
2022-09-13T07:18:57.673Z,16.60
2022-09-13T07:21:29.111Z,16.80
2022-09-13T07:23:58.585Z,16.80
2022-09-13T07:26:28.382Z,16.80
2022-09-13T07:28:58.433Z,16.80
2022-09-13T07:31:28.841Z,16.90
2022-09-13T07:33:59.599Z,16.80
2022-09-13T07:36:31.987Z,16.80
2022-09-13T07:39:01.868Z,16.90
2022-09-13T07:41:32.285Z,17.00
2022-09-13T07:44:02.920Z,17.00
2022-09-13T07:46:33.634Z,17.10
2022-09-13T07:49:03.209Z,17.20
2022-09-13T07:51:34.692Z,17.40
2022-09-13T07:58:28.321Z,17.80
2022-09-13T08:01:00.592Z,17.40
2022-09-13T08:03:30.187Z,17.30
2022-09-13T08:05:58.625Z,17.60
2022-09-13T08:08:28.612Z,17.60
2022-09-13T08:10:57.780Z,17.80
2022-09-13T08:13:27.355Z,18.20
2022-09-13T08:15:56.480Z,18.60
2022-09-13T08:18:25.287Z,18.80
2022-09-13T08:20:57.816Z,18.90
2022-09-13T08:23:28.557Z,19.00
2022-09-13T08:26:02.965Z,18.90
2022-09-13T08:28:32.944Z,18.80
2022-09-13T08:31:06.630Z,19.00
2022-09-13T08:33:35.637Z,19.00
2022-09-13T08:36:05.885Z,18.90
2022-09-13T08:38:36.316Z,18.80
2022-09-13T08:41:19.194Z,18.60
2022-09-13T08:43:56.573Z,18.80
2022-09-13T08:46:29.114Z,19.00
2022-09-13T08:49:02.732Z,19.00
2022-09-13T08:51:36.765Z,19.10
2022-09-13T08:54:07.834Z,19.10
2022-09-13T08:56:42.950Z,19.20
2022-09-13T08:59:26.343Z,19.00
2022-09-13T09:02:07.425Z,18.90
2022-09-13T09:04:43.785Z,19.20
2022-09-13T09:07:17.073Z,19.30
2022-09-13T09:09:53.001Z,19.10
2022-09-13T09:12:32.913Z,19.10
2022-09-13T09:15:06.620Z,19.30
2022-09-13T09:17:47.450Z,19.00
2022-09-13T09:20:25.894Z,18.80
2022-09-13T09:22:55.773Z,18.80
2022-09-13T09:25:27.489Z,18.90
2022-09-13T09:27:57.416Z,18.70
2022-09-13T09:30:37.174Z,18.80
2022-09-13T09:33:32.903Z,18.90
2022-09-13T09:36:07.950Z,18.90
2022-09-13T09:38:41.421Z,19.00
2022-09-13T09:41:18.143Z,19.10
2022-09-13T09:43:52.547Z,19.20
2022-09-13T09:46:27.571Z,19.40
2022-09-13T09:48:59.063Z,19.50
2022-09-13T09:51:30.419Z,19.70
2022-09-13T09:54:05.213Z,19.70
2022-09-13T09:56:36.778Z,19.60
2022-09-13T09:59:05.565Z,19.40
2022-09-13T10:01:36.726Z,19.30
2022-09-13T10:04:09.888Z,19.10
2022-09-13T10:06:40.455Z,19.10
2022-09-13T10:09:18.153Z,19.00
2022-09-13T10:11:52.346Z,19.00
2022-09-13T10:14:39.523Z,19.00
2022-09-13T10:17:18.640Z,19.30
2022-09-13T10:19:57.626Z,19.30
2022-09-13T10:22:26.915Z,19.40
2022-09-13T10:24:56.066Z,19.30
2022-09-13T10:27:32.254Z,19.60
2022-09-13T10:30:03.835Z,19.60
2022-09-13T10:32:33.058Z,19.60
2022-09-13T10:35:17.111Z,19.60
2022-09-13T10:37:46.764Z,19.80
2022-09-13T10:40:24.104Z,19.90
2022-09-13T10:42:56.550Z,20.00
2022-09-13T10:45:27.589Z,19.90
2022-09-13T10:48:00.730Z,20.00
2022-09-13T10:50:32.194Z,20.30
2022-09-13T10:53:02.078Z,20.60
2022-09-13T10:55:34.613Z,20.80
2022-09-13T10:58:21.510Z,20.60
2022-09-13T11:01:27.786Z,20.30
2022-09-13T11:04:45.371Z,20.30
2022-09-13T11:07:28.305Z,20.30
2022-09-13T11:10:01.742Z,20.10
2022-09-13T11:12:38.790Z,20.00
2022-09-13T11:15:18.837Z,20.20
2022-09-13T11:18:10.616Z,20.40
2022-09-13T11:20:51.061Z,20.60
2022-09-13T11:23:52.521Z,20.70
2022-09-13T11:26:45.018Z,20.30
2022-09-13T11:29:33.894Z,20.00
2022-09-13T11:32:17.576Z,19.70
2022-09-13T11:34:56.390Z,19.80
2022-09-13T11:37:41.113Z,19.60
2022-09-13T11:40:33.800Z,19.50
2022-09-13T11:43:19.864Z,19.40
2022-09-13T11:45:59.042Z,19.50
2022-09-13T11:48:48.308Z,19.50
2022-09-13T11:51:25.444Z,19.50
2022-09-13T11:54:12.191Z,19.40
2022-09-13T11:56:45.161Z,19.40
2022-09-13T11:59:23.102Z,19.60
2022-09-13T12:01:56.913Z,19.80
2022-09-13T12:04:33.773Z,19.70
2022-09-13T12:07:05.894Z,19.70
2022-09-13T12:09:39.495Z,19.70
2022-09-13T12:12:11.505Z,19.70
2022-09-13T12:14:46.553Z,19.70
2022-09-13T12:17:26.639Z,19.70
2022-09-13T12:20:00.369Z,19.40
2022-09-13T12:22:34.169Z,19.40
2022-09-13T12:25:07.519Z,19.30
2022-09-13T12:27:43.201Z,19.20
2022-09-13T12:30:18.184Z,19.10
2022-09-13T12:32:49.175Z,19.10
2022-09-13T12:35:28.026Z,19.00
2022-09-13T12:38:16.279Z,18.90
2022-09-13T12:41:13.133Z,18.90
2022-09-13T12:44:04.008Z,19.10
2022-09-13T12:47:21.428Z,19.00
2022-09-13T12:50:41.517Z,19.10
2022-09-13T12:53:09.921Z,19.10
2022-09-13T12:56:04.556Z,19.10
2022-09-13T12:58:57.267Z,19.20
2022-09-13T13:01:30.728Z,19.30
2022-09-13T13:04:09.744Z,19.40
2022-09-13T13:06:42.490Z,19.40
2022-09-13T13:09:29.069Z,19.40
2022-09-13T13:11:59.712Z,19.40
2022-09-13T13:14:46.347Z,19.50
2022-09-13T13:17:39.204Z,19.80
2022-09-13T13:20:45.139Z,19.90
2022-09-13T13:23:23.780Z,20.20
2022-09-13T13:26:30.963Z,20.20
2022-09-13T13:29:17.505Z,20.30
2022-09-13T13:32:04.183Z,20.30
2022-09-13T13:34:42.002Z,20.50
2022-09-13T13:37:34.741Z,20.40
2022-09-13T13:40:25.713Z,20.50
2022-09-13T13:43:30.756Z,20.60
2022-09-13T13:46:26.700Z,20.70
2022-09-13T13:48:55.925Z,20.70
2022-09-13T13:51:26.808Z,20.40
2022-09-13T13:54:02.816Z,20.20
2022-09-13T13:56:47.261Z,20.10
2022-09-13T13:59:20.777Z,20.00
2022-09-13T14:01:59.304Z,19.90
2022-09-13T14:04:57.961Z,19.90
2022-09-13T14:07:47.274Z,19.80
2022-09-13T14:10:22.362Z,19.80
2022-09-13T14:13:22.117Z,19.80
2022-09-13T14:15:57.457Z,19.80
2022-09-13T14:21:27.172Z,19.90
2022-09-13T14:24:11.430Z,19.80
2022-09-13T14:26:41.424Z,19.80
2022-09-13T14:29:10.685Z,19.70
2022-09-13T14:31:39.674Z,19.60
2022-09-13T14:34:24.778Z,19.60
2022-09-13T14:36:57.048Z,19.40
2022-09-13T14:39:27.073Z,19.40
2022-09-13T14:42:04.182Z,19.30
2022-09-13T14:44:32.714Z,19.40
2022-09-13T14:47:07.340Z,19.40
2022-09-13T14:49:41.351Z,19.20
2022-09-13T14:52:17.408Z,19.10
2022-09-13T14:54:52.766Z,19.10
2022-09-13T14:57:28.736Z,19.40
2022-09-13T14:59:59.501Z,19.50
2022-09-13T15:02:31.820Z,19.70
2022-09-13T15:05:02.326Z,20.10
2022-09-13T15:07:34.494Z,20.00
2022-09-13T15:10:11.144Z,19.90
2022-09-13T15:12:51.754Z,19.90
2022-09-13T15:15:33.290Z,19.90
2022-09-13T15:18:03.667Z,19.80
2022-09-13T15:20:47.307Z,19.70
2022-09-13T15:23:19.372Z,19.70
2022-09-13T15:25:54.407Z,19.60
2022-09-13T15:28:26.494Z,19.60
2022-09-13T15:30:57.030Z,19.50
2022-09-13T15:33:29.065Z,19.50
2022-09-13T15:36:27.024Z,19.50
2022-09-13T15:39:16.925Z,19.50
2022-09-13T15:41:54.570Z,19.40
2022-09-13T15:44:23.616Z,19.50
2022-09-13T15:46:54.049Z,19.30
2022-09-13T15:49:26.434Z,19.10
2022-09-13T15:51:56.466Z,19.30
2022-09-13T15:54:32.919Z,19.30
2022-09-13T15:57:01.628Z,19.40
2022-09-13T15:59:30.306Z,19.20
2022-09-13T16:01:58.939Z,19.20
2022-09-13T16:04:27.483Z,19.20
2022-09-13T16:06:55.954Z,19.10
2022-09-13T16:09:27.282Z,19.10
2022-09-13T16:11:55.823Z,19.00
2022-09-13T16:14:24.375Z,19.00
2022-09-13T16:16:52.843Z,18.90
2022-09-13T16:19:22.801Z,18.80
2022-09-13T16:21:51.380Z,18.80
2022-09-13T16:24:19.890Z,18.70
2022-09-13T16:26:49.851Z,18.60
2022-09-13T16:29:18.342Z,18.50
2022-09-13T16:31:47.079Z,18.20
2022-09-13T16:34:15.631Z,18.10
2022-09-13T16:36:44.085Z,18.00
2022-09-13T16:39:12.666Z,17.90
2022-09-13T16:41:41.459Z,17.80
2022-09-13T16:44:11.424Z,17.70
2022-09-13T16:46:40.014Z,17.70
2022-09-13T16:49:08.694Z,17.70
2022-09-13T16:51:37.886Z,17.70
2022-09-13T16:54:06.918Z,17.70
2022-09-13T16:56:35.633Z,17.70
2022-09-13T16:59:04.208Z,17.60
2022-09-13T17:01:34.380Z,17.60
2022-09-13T17:04:03.483Z,17.60
2022-09-13T17:06:32.024Z,17.50
2022-09-13T17:09:03.114Z,17.50
2022-09-13T17:11:33.839Z,17.50
2022-09-13T17:14:04.709Z,17.40
2022-09-13T17:16:37.171Z,17.30
2022-09-13T17:19:08.570Z,17.20
2022-09-13T17:21:37.768Z,17.20
2022-09-13T17:24:11.392Z,17.20
2022-09-13T17:26:43.178Z,17.10
2022-09-13T17:29:12.868Z,17.00
2022-09-13T17:31:43.789Z,17.10
2022-09-13T17:34:13.103Z,17.00
2022-09-13T17:36:42.722Z,16.90
2022-09-13T17:39:11.852Z,16.90
2022-09-13T17:41:40.468Z,16.90
2022-09-13T17:44:09.113Z,16.90
2022-09-13T17:46:37.808Z,16.80
2022-09-13T17:49:08.169Z,16.80
2022-09-13T17:51:37.129Z,16.80
2022-09-13T17:54:09.668Z,16.80
2022-09-13T17:56:40.476Z,16.80
2022-09-13T17:59:11.014Z,16.80
2022-09-13T18:01:41.020Z,16.90
2022-09-13T18:04:12.569Z,16.80
2022-09-13T18:06:42.734Z,16.80
2022-09-13T18:09:12.347Z,16.80
2022-09-13T18:11:41.769Z,16.90
2022-09-13T18:14:14.523Z,16.90
2022-09-13T18:16:44.412Z,16.80
2022-09-13T18:19:14.516Z,16.90
2022-09-13T18:21:43.343Z,16.80
2022-09-13T18:24:12.050Z,16.80
2022-09-13T18:26:40.845Z,16.80
2022-09-13T18:29:13.132Z,16.70
2022-09-13T18:31:43.655Z,16.60
2022-09-13T18:34:15.769Z,16.60
2022-09-13T18:36:44.571Z,16.50
2022-09-13T18:39:17.706Z,16.50
2022-09-13T18:41:48.335Z,16.50
2022-09-13T18:44:18.197Z,16.30
2022-09-13T18:46:47.644Z,16.30
2022-09-13T18:49:18.406Z,16.30
2022-09-13T18:51:47.030Z,16.20
2022-09-13T18:54:17.751Z,16.20
2022-09-13T18:56:47.268Z,16.20
2022-09-13T18:59:15.971Z,16.20
2022-09-13T19:01:45.641Z,16.20
2022-09-13T19:04:15.995Z,16.10
2022-09-13T19:06:47.679Z,16.10
2022-09-13T19:09:17.611Z,16.00
2022-09-13T19:11:49.246Z,16.00
2022-09-13T19:14:20.126Z,16.10
2022-09-13T19:16:48.784Z,16.10
2022-09-13T19:19:17.457Z,15.90
2022-09-13T19:21:47.563Z,15.80
2022-09-13T19:24:19.468Z,15.80
2022-09-13T19:26:50.723Z,15.80
2022-09-13T19:29:21.220Z,15.70
2022-09-13T19:31:51.418Z,15.70
2022-09-13T19:34:22.072Z,15.60
2022-09-13T19:36:58.340Z,15.60
2022-09-13T19:39:29.917Z,15.70
2022-09-13T19:42:00.708Z,15.60
2022-09-13T19:44:29.941Z,15.60
2022-09-13T19:47:45.035Z,15.60
2022-09-13T19:49:49.615Z,15.60
2022-09-13T19:52:20.895Z,15.60
2022-09-13T19:54:50.396Z,15.60
2022-09-13T19:57:19.205Z,15.50
2022-09-13T19:59:47.921Z,15.50
2022-09-13T20:02:16.781Z,15.50
2022-09-13T20:04:47.751Z,15.50
2022-09-13T20:07:16.432Z,15.40
2022-09-13T20:09:47.060Z,15.40
2022-09-13T20:12:15.942Z,15.40
2022-09-13T20:14:44.507Z,15.40
2022-09-13T20:17:13.134Z,15.30
2022-09-13T20:19:46.223Z,15.30
2022-09-13T20:22:17.693Z,15.30
2022-09-13T20:24:47.797Z,15.40
2022-09-13T20:27:16.247Z,15.40
2022-09-13T20:29:44.749Z,15.30
2022-09-13T20:32:13.186Z,15.30
2022-09-13T20:34:41.698Z,15.20
2022-09-13T20:37:10.191Z,15.20
2022-09-13T20:39:38.756Z,15.20
2022-09-13T20:42:08.765Z,15.20
2022-09-13T20:44:37.366Z,15.00
2022-09-13T20:47:06.332Z,14.80
2022-09-13T20:49:34.821Z,14.90
2022-09-13T20:52:03.648Z,14.80
2022-09-13T20:54:32.141Z,14.70
2022-09-13T20:57:00.999Z,14.70
2022-09-13T20:59:30.797Z,14.60
2022-09-13T21:01:59.510Z,14.70
2022-09-13T21:04:28.079Z,14.70
2022-09-13T21:07:14.892Z,14.70
2022-09-13T21:09:44.368Z,14.70
2022-09-13T21:12:14.416Z,14.70
2022-09-13T21:14:46.319Z,14.70
2022-09-13T21:17:15.127Z,14.60
2022-09-13T21:19:43.710Z,14.80
2022-09-13T21:22:12.188Z,14.80
2022-09-13T21:24:40.647Z,14.90
2022-09-13T21:27:09.310Z,14.70
2022-09-13T21:29:37.792Z,14.70
2022-09-13T21:32:07.812Z,14.60
2022-09-13T21:34:36.323Z,14.60
2022-09-13T21:37:04.830Z,14.50
2022-09-13T21:39:33.608Z,14.60
2022-09-13T21:42:02.401Z,14.50
2022-09-13T21:44:31.190Z,14.40
2022-09-13T21:46:59.642Z,14.30
2022-09-13T21:49:29.627Z,14.40
2022-09-13T21:51:58.138Z,14.30
2022-09-13T21:54:26.587Z,14.30
2022-09-13T21:56:55.645Z,14.30
2022-09-13T21:59:24.701Z,14.20
2022-09-13T22:01:54.867Z,14.10
2022-09-13T22:04:27.095Z,14.20
2022-09-13T22:06:57.044Z,14.10
2022-09-13T22:09:27.588Z,14.10
2022-09-13T22:11:56.908Z,14.10
2022-09-13T22:14:26.580Z,14.10
2022-09-13T22:16:55.226Z,14.10
2022-09-13T22:19:26.106Z,14.10
2022-09-13T22:21:59.116Z,14.00
2022-09-13T22:24:31.976Z,14.10
2022-09-13T22:27:01.199Z,14.00
2022-09-13T22:29:30.144Z,14.00
2022-09-13T22:31:58.672Z,13.90
2022-09-13T22:34:30.779Z,14.00
2022-09-13T22:37:01.079Z,13.90
2022-09-13T22:39:29.757Z,13.90
2022-09-13T22:41:58.280Z,13.90
2022-09-13T22:44:27.191Z,13.80
2022-09-13T22:46:55.837Z,13.90
2022-09-13T22:49:24.347Z,13.80
2022-09-13T22:51:52.846Z,13.70
2022-09-13T22:54:22.688Z,13.70
2022-09-13T22:56:51.167Z,13.70
2022-09-13T22:59:21.746Z,13.60
2022-09-13T23:01:50.791Z,13.60
2022-09-13T23:04:19.324Z,13.40
2022-09-13T23:06:48.013Z,13.40
2022-09-13T23:09:19.405Z,13.40
2022-09-13T23:11:49.713Z,13.30
2022-09-13T23:14:20.710Z,13.30
2022-09-13T23:16:51.855Z,13.30
2022-09-13T23:19:21.966Z,13.30
2022-09-13T23:21:52.982Z,13.40
2022-09-13T23:24:21.933Z,13.40
2022-09-13T23:26:51.815Z,13.60
2022-09-13T23:29:21.232Z,13.60
2022-09-13T23:31:51.987Z,13.70
2022-09-13T23:34:20.934Z,13.80
2022-09-13T23:36:49.749Z,13.90
2022-09-13T23:39:20.789Z,13.90
2022-09-13T23:41:52.266Z,14.00
2022-09-13T23:44:21.349Z,14.00
2022-09-13T23:46:51.037Z,14.00
2022-09-13T23:49:19.490Z,14.00
2022-09-13T23:51:48.857Z,13.90
2022-09-13T23:54:17.784Z,14.00
2022-09-13T23:56:46.476Z,14.00
2022-09-13T23:59:16.490Z,14.00
